N296PL KSAN-KLAX
Flight info
| Callsign | N296PL |
|---|---|
| Flight time | 0h 53m |
| Altitude | VFR |
| Route | N |
| Aircraft | C172/L-VGD/C |
Departure
| Time | 2026-04-23 03:13 |
|---|---|
| Airport | San Diego International Airport (KSAN) |
Arrival
| Time | 2026-04-23 04:06 |
|---|---|
| Airport | Los Angeles International Airport (KLAX) |
| Time | Latitude | Longitude | Altitude | Speed | Heading |
|---|---|---|---|---|---|
| 2026-04-23 03:13 | 32.80304 | -117.26765 | 1467 ft | 103 kts | 342° |
| 2026-04-23 03:13 | 32.80972 | -117.27050 | 1462 ft | 101 kts | 343° |
| 2026-04-23 03:14 | 32.81712 | -117.27125 | 1498 ft | 114 kts | 357° |
| 2026-04-23 03:14 | 32.82500 | -117.27175 | 1665 ft | 111 kts | 356° |
| 2026-04-23 03:14 | 32.83260 | -117.27222 | 1863 ft | 108 kts | 356° |
| 2026-04-23 03:14 | 32.84002 | -117.27269 | 2058 ft | 105 kts | 356° |
| 2026-04-23 03:15 | 32.84725 | -117.27315 | 2252 ft | 103 kts | 356° |
| 2026-04-23 03:15 | 32.85450 | -117.27361 | 2368 ft | 109 kts | 356° |
| 2026-04-23 03:15 | 32.86251 | -117.27409 | 2382 ft | 119 kts | 357° |
| 2026-04-23 03:15 | 32.87103 | -117.27460 | 2382 ft | 125 kts | 357° |
| 2026-04-23 03:16 | 32.87969 | -117.27510 | 2382 ft | 127 kts | 357° |
| 2026-04-23 03:16 | 32.88854 | -117.27562 | 2447 ft | 122 kts | 357° |
| 2026-04-23 03:16 | 32.90304 | -117.27654 | 3049 ft | 89 kts | 356° |
| 2026-04-23 03:17 | 32.90877 | -117.27692 | 3353 ft | 75 kts | 355° |
| 2026-04-23 03:17 | 32.91362 | -117.27725 | 3583 ft | 67 kts | 355° |
| 2026-04-23 03:17 | 32.91813 | -117.27754 | 3763 ft | 63 kts | 355° |
| 2026-04-23 03:17 | 32.92282 | -117.27819 | 3802 ft | 81 kts | 347° |
| 2026-04-23 03:18 | 32.92889 | -117.28004 | 3808 ft | 102 kts | 346° |
| 2026-04-23 03:18 | 32.93578 | -117.28074 | 4011 ft | 98 kts | 356° |
| 2026-04-23 03:18 | 32.94248 | -117.28117 | 4208 ft | 95 kts | 356° |
| 2026-04-23 03:18 | 32.94902 | -117.28158 | 4367 ft | 96 kts | 356° |
| 2026-04-23 03:19 | 32.95622 | -117.28200 | 4384 ft | 109 kts | 357° |
| 2026-04-23 03:19 | 32.96405 | -117.28245 | 4382 ft | 118 kts | 357° |
| 2026-04-23 03:19 | 32.97242 | -117.28294 | 4385 ft | 122 kts | 357° |
| 2026-04-23 03:19 | 32.98097 | -117.28344 | 4382 ft | 124 kts | 357° |
| 2026-04-23 03:20 | 32.98963 | -117.28394 | 4383 ft | 125 kts | 357° |
| 2026-04-23 03:20 | 32.99830 | -117.28444 | 4416 ft | 123 kts | 357° |
| 2026-04-23 03:20 | 33.00665 | -117.28494 | 4537 ft | 118 kts | 356° |
| 2026-04-23 03:20 | 33.01466 | -117.28543 | 4663 ft | 115 kts | 356° |
| 2026-04-23 03:21 | 33.02240 | -117.28591 | 4852 ft | 108 kts | 356° |
| 2026-04-23 03:21 | 33.02972 | -117.28686 | 5031 ft | 104 kts | 335° |
| 2026-04-23 03:21 | 33.03527 | -117.29202 | 5219 ft | 100 kts | 320° |
| 2026-04-23 03:21 | 33.04059 | -117.29717 | 5403 ft | 97 kts | 320° |
| 2026-04-23 03:22 | 33.04576 | -117.30219 | 5602 ft | 95 kts | 320° |
| 2026-04-23 03:22 | 33.05080 | -117.30709 | 5790 ft | 92 kts | 320° |
| 2026-04-23 03:22 | 33.05571 | -117.31188 | 5981 ft | 90 kts | 320° |
| 2026-04-23 03:22 | 33.06036 | -117.31655 | 6168 ft | 87 kts | 315° |
| 2026-04-23 03:23 | 33.06463 | -117.32155 | 6354 ft | 85 kts | 315° |
| 2026-04-23 03:23 | 33.06918 | -117.32682 | 6405 ft | 99 kts | 316° |
| 2026-04-23 03:23 | 33.07447 | -117.33292 | 6413 ft | 112 kts | 316° |
| 2026-04-23 03:23 | 33.08026 | -117.33959 | 6411 ft | 119 kts | 316° |
| 2026-04-23 03:24 | 33.08601 | -117.34622 | 6560 ft | 111 kts | 316° |
| 2026-04-23 03:24 | 33.09133 | -117.35240 | 6753 ft | 103 kts | 315° |
| 2026-04-23 03:24 | 33.09635 | -117.35822 | 6939 ft | 98 kts | 315° |
| 2026-04-23 03:24 | 33.10113 | -117.36378 | 7124 ft | 94 kts | 315° |
| 2026-04-23 03:25 | 33.10571 | -117.36910 | 7309 ft | 90 kts | 315° |
| 2026-04-23 03:25 | 33.11011 | -117.37422 | 7493 ft | 86 kts | 315° |
| 2026-04-23 03:25 | 33.11431 | -117.37911 | 7676 ft | 82 kts | 315° |
| 2026-04-23 03:25 | 33.11832 | -117.38378 | 7844 ft | 81 kts | 315° |
| 2026-04-23 03:26 | 33.12240 | -117.38851 | 7965 ft | 84 kts | 315° |
| 2026-04-23 03:26 | 33.12668 | -117.39346 | 8096 ft | 87 kts | 315° |
| 2026-04-23 03:26 | 33.13096 | -117.39865 | 8230 ft | 89 kts | 309° |
| 2026-04-23 03:26 | 33.13492 | -117.40439 | 8363 ft | 90 kts | 309° |
| 2026-04-23 03:27 | 33.13896 | -117.41019 | 8495 ft | 91 kts | 309° |
| 2026-04-23 03:27 | 33.14308 | -117.41608 | 8627 ft | 93 kts | 309° |
| 2026-04-23 03:27 | 33.14723 | -117.42203 | 8757 ft | 93 kts | 309° |
| 2026-04-23 03:27 | 33.15141 | -117.42802 | 8886 ft | 94 kts | 309° |
| 2026-04-23 03:28 | 33.15582 | -117.43432 | 8911 ft | 105 kts | 310° |
| 2026-04-23 03:28 | 33.16077 | -117.44127 | 8910 ft | 114 kts | 312° |
| 2026-04-23 03:28 | 33.16626 | -117.44832 | 8909 ft | 118 kts | 313° |
| 2026-04-23 03:28 | 33.17189 | -117.45549 | 8908 ft | 118 kts | 313° |
| 2026-04-23 03:29 | 33.17740 | -117.46249 | 8908 ft | 112 kts | 313° |
| 2026-04-23 03:29 | 33.18268 | -117.46922 | 8902 ft | 110 kts | 313° |
| 2026-04-23 03:29 | 33.18789 | -117.47586 | 8897 ft | 109 kts | 313° |
| 2026-04-23 03:29 | 33.19299 | -117.48235 | 8893 ft | 108 kts | 313° |
| 2026-04-23 03:30 | 33.19812 | -117.48890 | 8891 ft | 108 kts | 313° |
| 2026-04-23 03:30 | 33.20324 | -117.49542 | 8892 ft | 107 kts | 313° |
| 2026-04-23 03:30 | 33.20831 | -117.50188 | 8890 ft | 107 kts | 313° |
| 2026-04-23 03:30 | 33.21337 | -117.50833 | 8891 ft | 106 kts | 313° |
| 2026-04-23 03:31 | 33.21842 | -117.51477 | 8891 ft | 106 kts | 313° |
| 2026-04-23 03:31 | 33.22347 | -117.52121 | 8892 ft | 106 kts | 313° |
| 2026-04-23 03:31 | 33.22850 | -117.52763 | 8892 ft | 106 kts | 313° |
| 2026-04-23 03:31 | 33.23355 | -117.53406 | 8892 ft | 106 kts | 313° |
| 2026-04-23 03:32 | 33.23859 | -117.54048 | 8892 ft | 106 kts | 313° |
| 2026-04-23 03:32 | 33.24357 | -117.54684 | 8892 ft | 107 kts | 313° |
| 2026-04-23 03:32 | 33.24867 | -117.55334 | 8895 ft | 107 kts | 313° |
| 2026-04-23 03:32 | 33.25380 | -117.55989 | 8892 ft | 109 kts | 313° |
| 2026-04-23 03:33 | 33.25911 | -117.56670 | 8907 ft | 114 kts | 313° |
| 2026-04-23 03:33 | 33.26463 | -117.57376 | 8910 ft | 118 kts | 313° |
| 2026-04-23 03:33 | 33.27028 | -117.58099 | 8910 ft | 120 kts | 313° |
| 2026-04-23 03:33 | 33.27602 | -117.58832 | 8909 ft | 121 kts | 313° |
| 2026-04-23 03:34 | 33.28179 | -117.59570 | 8909 ft | 122 kts | 313° |
| 2026-04-23 03:34 | 33.28757 | -117.60308 | 8909 ft | 122 kts | 313° |
| 2026-04-23 03:34 | 33.29331 | -117.61041 | 8908 ft | 122 kts | 313° |
| 2026-04-23 03:34 | 33.29913 | -117.61783 | 8909 ft | 122 kts | 313° |
| 2026-04-23 03:35 | 33.30493 | -117.62524 | 8908 ft | 122 kts | 313° |
| 2026-04-23 03:35 | 33.31075 | -117.63267 | 8909 ft | 122 kts | 313° |
| 2026-04-23 03:35 | 33.31657 | -117.64011 | 8909 ft | 122 kts | 313° |
| 2026-04-23 03:35 | 33.32239 | -117.64753 | 8909 ft | 122 kts | 313° |
| 2026-04-23 03:36 | 33.32822 | -117.65498 | 8909 ft | 122 kts | 313° |
| 2026-04-23 03:36 | 33.33406 | -117.66244 | 8909 ft | 122 kts | 313° |
| 2026-04-23 03:36 | 33.33987 | -117.66986 | 8909 ft | 122 kts | 313° |
| 2026-04-23 03:36 | 33.34562 | -117.67720 | 8909 ft | 122 kts | 313° |
| 2026-04-23 03:37 | 33.35144 | -117.68463 | 8909 ft | 122 kts | 313° |
| 2026-04-23 03:37 | 33.35727 | -117.69207 | 8909 ft | 122 kts | 313° |
| 2026-04-23 03:37 | 33.36309 | -117.69951 | 8909 ft | 122 kts | 313° |
| 2026-04-23 03:37 | 33.36891 | -117.70694 | 8909 ft | 122 kts | 313° |
| 2026-04-23 03:38 | 33.37474 | -117.71438 | 8909 ft | 122 kts | 313° |
| 2026-04-23 03:38 | 33.38057 | -117.72182 | 8909 ft | 122 kts | 313° |
| 2026-04-23 03:38 | 33.38632 | -117.72916 | 8910 ft | 122 kts | 313° |
| 2026-04-23 03:38 | 33.39215 | -117.73660 | 8910 ft | 122 kts | 313° |
| 2026-04-23 03:39 | 33.39797 | -117.74402 | 8910 ft | 122 kts | 313° |
| 2026-04-23 03:39 | 33.40379 | -117.75146 | 8910 ft | 122 kts | 313° |
| 2026-04-23 03:39 | 33.40963 | -117.75890 | 8910 ft | 122 kts | 313° |
| 2026-04-23 03:39 | 33.41545 | -117.76634 | 8910 ft | 122 kts | 313° |
| 2026-04-23 03:40 | 33.42128 | -117.77377 | 8910 ft | 122 kts | 313° |
| 2026-04-23 03:40 | 33.42711 | -117.78121 | 8910 ft | 122 kts | 313° |
| 2026-04-23 03:40 | 33.43287 | -117.78856 | 8910 ft | 122 kts | 313° |
| 2026-04-23 03:40 | 33.43869 | -117.79600 | 8910 ft | 122 kts | 313° |
| 2026-04-23 03:41 | 33.44452 | -117.80344 | 8910 ft | 122 kts | 313° |
| 2026-04-23 03:41 | 33.45035 | -117.81087 | 8910 ft | 122 kts | 313° |
| 2026-04-23 03:41 | 33.45618 | -117.81831 | 8910 ft | 122 kts | 313° |
| 2026-04-23 03:41 | 33.46199 | -117.82573 | 8910 ft | 122 kts | 313° |
| 2026-04-23 03:42 | 33.46782 | -117.83317 | 8910 ft | 122 kts | 313° |
| 2026-04-23 03:42 | 33.47358 | -117.84051 | 8910 ft | 122 kts | 313° |
| 2026-04-23 03:42 | 33.47941 | -117.84795 | 8910 ft | 122 kts | 313° |
| 2026-04-23 03:42 | 33.48524 | -117.85539 | 8910 ft | 122 kts | 313° |
| 2026-04-23 03:43 | 33.49108 | -117.86283 | 8910 ft | 122 kts | 313° |
| 2026-04-23 03:43 | 33.49690 | -117.87026 | 8910 ft | 122 kts | 313° |
| 2026-04-23 03:43 | 33.50273 | -117.87770 | 8911 ft | 122 kts | 313° |
| 2026-04-23 03:43 | 33.50856 | -117.88513 | 8911 ft | 122 kts | 313° |
| 2026-04-23 03:44 | 33.51439 | -117.89257 | 8911 ft | 122 kts | 313° |
| 2026-04-23 03:44 | 33.52021 | -117.89999 | 8911 ft | 122 kts | 313° |
| 2026-04-23 03:44 | 33.52606 | -117.90746 | 8911 ft | 122 kts | 313° |
| 2026-04-23 03:44 | 33.53182 | -117.91481 | 8911 ft | 122 kts | 313° |
| 2026-04-23 03:45 | 33.53765 | -117.92225 | 8911 ft | 122 kts | 313° |
| 2026-04-23 03:45 | 33.54348 | -117.92968 | 8910 ft | 122 kts | 313° |
| 2026-04-23 03:45 | 33.54931 | -117.93712 | 8911 ft | 122 kts | 313° |
| 2026-04-23 03:45 | 33.55514 | -117.94457 | 8910 ft | 122 kts | 313° |
| 2026-04-23 03:46 | 33.56098 | -117.95202 | 8910 ft | 122 kts | 313° |
| 2026-04-23 03:46 | 33.56682 | -117.95948 | 8910 ft | 122 kts | 313° |
| 2026-04-23 03:46 | 33.57266 | -117.96692 | 8910 ft | 122 kts | 314° |
| 2026-04-23 03:46 | 33.57854 | -117.97410 | 8911 ft | 122 kts | 314° |
| 2026-04-23 03:47 | 33.58448 | -117.98141 | 8911 ft | 122 kts | 314° |
| 2026-04-23 03:47 | 33.59044 | -117.98874 | 8911 ft | 122 kts | 314° |
| 2026-04-23 03:47 | 33.59638 | -117.99606 | 8911 ft | 123 kts | 314° |
| 2026-04-23 03:47 | 33.60238 | -118.00345 | 8912 ft | 124 kts | 314° |
| 2026-04-23 03:48 | 33.60839 | -118.01085 | 8914 ft | 124 kts | 314° |
| 2026-04-23 03:48 | 33.61443 | -118.01830 | 8915 ft | 124 kts | 314° |
| 2026-04-23 03:48 | 33.62038 | -118.02563 | 8916 ft | 124 kts | 314° |
| 2026-04-23 03:48 | 33.62643 | -118.03308 | 8916 ft | 124 kts | 314° |
| 2026-04-23 03:49 | 33.63247 | -118.04052 | 8916 ft | 124 kts | 314° |
| 2026-04-23 03:49 | 33.63852 | -118.04797 | 8917 ft | 124 kts | 314° |
| 2026-04-23 03:49 | 33.64454 | -118.05540 | 8917 ft | 124 kts | 314° |
| 2026-04-23 03:49 | 33.65058 | -118.06284 | 8917 ft | 124 kts | 314° |
| 2026-04-23 03:50 | 33.65663 | -118.07028 | 8917 ft | 124 kts | 314° |
| 2026-04-23 03:50 | 33.66261 | -118.07764 | 8917 ft | 124 kts | 314° |
| 2026-04-23 03:50 | 33.66865 | -118.08508 | 8918 ft | 124 kts | 314° |
| 2026-04-23 03:50 | 33.67468 | -118.09251 | 8918 ft | 124 kts | 314° |
| 2026-04-23 03:51 | 33.68072 | -118.09994 | 8918 ft | 124 kts | 314° |
| 2026-04-23 03:51 | 33.68677 | -118.10739 | 8917 ft | 124 kts | 314° |
| 2026-04-23 03:51 | 33.69282 | -118.11484 | 8918 ft | 124 kts | 314° |
| 2026-04-23 03:51 | 33.69888 | -118.12229 | 8918 ft | 124 kts | 314° |
| 2026-04-23 03:52 | 33.70487 | -118.12966 | 8917 ft | 124 kts | 314° |
| 2026-04-23 03:52 | 33.71093 | -118.13708 | 8917 ft | 124 kts | 315° |
| 2026-04-23 03:52 | 33.71709 | -118.14441 | 8917 ft | 124 kts | 315° |
| 2026-04-23 03:52 | 33.72324 | -118.15172 | 8917 ft | 124 kts | 315° |
| 2026-04-23 03:53 | 33.72940 | -118.15903 | 8917 ft | 124 kts | 315° |
| 2026-04-23 03:53 | 33.73557 | -118.16637 | 8917 ft | 124 kts | 315° |
| 2026-04-23 03:53 | 33.74171 | -118.17367 | 8917 ft | 124 kts | 315° |
| 2026-04-23 03:53 | 33.74788 | -118.18100 | 8917 ft | 124 kts | 315° |
| 2026-04-23 03:54 | 33.75404 | -118.18831 | 8917 ft | 124 kts | 315° |
| 2026-04-23 03:54 | 33.76021 | -118.19565 | 8917 ft | 124 kts | 315° |
| 2026-04-23 03:54 | 33.76635 | -118.20294 | 8917 ft | 124 kts | 315° |
| 2026-04-23 03:54 | 33.77252 | -118.21027 | 8917 ft | 124 kts | 315° |
| 2026-04-23 03:55 | 33.77867 | -118.21757 | 8918 ft | 124 kts | 315° |
| 2026-04-23 03:55 | 33.78476 | -118.22480 | 8918 ft | 124 kts | 315° |
| 2026-04-23 03:55 | 33.79093 | -118.23212 | 8918 ft | 124 kts | 315° |
| 2026-04-23 03:55 | 33.79708 | -118.23943 | 8918 ft | 124 kts | 315° |
| 2026-04-23 03:56 | 33.80325 | -118.24674 | 8918 ft | 124 kts | 316° |
| 2026-04-23 03:56 | 33.80954 | -118.25396 | 8916 ft | 125 kts | 316° |
| 2026-04-23 03:56 | 33.81581 | -118.26116 | 8916 ft | 124 kts | 316° |
| 2026-04-23 03:56 | 33.82206 | -118.26833 | 8916 ft | 124 kts | 316° |
| 2026-04-23 03:57 | 33.82834 | -118.27552 | 8916 ft | 124 kts | 316° |
| 2026-04-23 03:57 | 33.83461 | -118.28272 | 8916 ft | 123 kts | 316° |
| 2026-04-23 03:57 | 33.84060 | -118.28964 | 8759 ft | 120 kts | 316° |
| 2026-04-23 03:57 | 33.84689 | -118.29669 | 8458 ft | 123 kts | 319° |
| 2026-04-23 03:58 | 33.85349 | -118.30280 | 8171 ft | 122 kts | 322° |
| 2026-04-23 03:58 | 33.86026 | -118.31005 | 7547 ft | 134 kts | 317° |
| 2026-04-23 03:58 | 33.86724 | -118.31777 | 6858 ft | 140 kts | 317° |
| 2026-04-23 03:58 | 33.87444 | -118.32574 | 6160 ft | 141 kts | 317° |
| 2026-04-23 03:59 | 33.88199 | -118.33326 | 5453 ft | 141 kts | 334° |
| 2026-04-23 03:59 | 33.89153 | -118.33321 | 4760 ft | 142 kts | 26° |
| 2026-04-23 03:59 | 33.89752 | -118.32410 | 4055 ft | 142 kts | 72° |
| 2026-04-23 03:59 | 33.89751 | -118.31277 | 3449 ft | 137 kts | 119° |
| 2026-04-23 04:00 | 33.89195 | -118.30466 | 3402 ft | 118 kts | 133° |
| 2026-04-23 04:00 | 33.88675 | -118.29746 | 3396 ft | 109 kts | 131° |
| 2026-04-23 04:00 | 33.88535 | -118.28914 | 3397 ft | 103 kts | 76° |
| 2026-04-23 04:00 | 33.88775 | -118.28446 | 3394 ft | 100 kts | 33° |
| 2026-04-23 04:01 | 33.89425 | -118.28248 | 3397 ft | 96 kts | 30° |
| 2026-04-23 04:01 | 33.89960 | -118.27782 | 3398 ft | 94 kts | 40° |
| 2026-04-23 04:01 | 33.90182 | -118.27066 | 3405 ft | 94 kts | 81° |
| 2026-04-23 04:01 | 33.90309 | -118.26292 | 3405 ft | 95 kts | 79° |
| 2026-04-23 04:02 | 33.90437 | -118.25512 | 3407 ft | 95 kts | 79° |
| 2026-04-23 04:02 | 33.90893 | -118.24929 | 3406 ft | 109 kts | 9° |
| 2026-04-23 04:02 | 33.91562 | -118.25297 | 3421 ft | 115 kts | 303° |
| 2026-04-23 04:02 | 33.91952 | -118.26151 | 3419 ft | 120 kts | 299° |
| 2026-04-23 04:03 | 33.92367 | -118.27041 | 3417 ft | 123 kts | 299° |
| 2026-04-23 04:03 | 33.92777 | -118.27908 | 3191 ft | 123 kts | 300° |
| 2026-04-23 04:03 | 33.93218 | -118.28841 | 2862 ft | 132 kts | 300° |
| 2026-04-23 04:03 | 33.93678 | -118.29813 | 2524 ft | 135 kts | 300° |
| 2026-04-23 04:04 | 33.94145 | -118.30797 | 2185 ft | 136 kts | 300° |
| 2026-04-23 04:04 | 33.94462 | -118.31848 | 1823 ft | 134 kts | 269° |
| 2026-04-23 04:04 | 33.94314 | -118.32935 | 1477 ft | 132 kts | 262° |
| 2026-04-23 04:04 | 33.94192 | -118.33982 | 1405 ft | 116 kts | 263° |
| 2026-04-23 04:05 | 33.94101 | -118.34835 | 1385 ft | 91 kts | 264° |
| 2026-04-23 04:05 | 33.94020 | -118.35594 | 1178 ft | 91 kts | 263° |
| 2026-04-23 04:05 | 33.93925 | -118.36381 | 897 ft | 95 kts | 264° |
| 2026-04-23 04:05 | 33.93853 | -118.37166 | 626 ft | 95 kts | 265° |
| 2026-04-23 04:06 | 33.93771 | -118.37885 | 443 ft | 79 kts | 269° |
| 2026-04-23 04:06 | 33.93711 | -118.38516 | 163 ft | 74 kts | 263° |
| 2026-04-23 04:06 | 33.93651 | -118.39032 | 119 ft | 50 kts | 263° |
| 2026-04-23 04:06 | 33.93612 | -118.39337 | 120 ft | 26 kts | 227° |
| 2026-04-23 04:07 | 33.93534 | -118.39372 | 120 ft | 0 kts | 182° |
| 2026-04-23 04:07 | 33.93513 | -118.39374 | 120 ft | 9 kts | 195° |